Time;durP1;ratioP1;P1;durP2;ratioP2;P2;SDS_P1;SDS_P2;PMS_P1;PMS_P2;Temp;Humidity;BMP_temperature;BMP_pressure;BME280_temperature;BME280_humidity;BME280_pressure;Samples;Min_cycle;Max_cycle;Signal;HPM_P1;HPM_P2
2022/06/21 00:00:17;;;;;;;0.00;0.00;;;11.30;99.90;;;;;;5102428;27;20052;-80
2022/06/21 00:02:44;;;;;;;0.00;0.00;;;11.20;99.90;;;;;;5102039;27;20063;-80
2022/06/21 00:05:17;;;;;;;0.00;0.00;;;11.20;99.90;;;;;;5102328;27;20083;-80
2022/06/21 00:07:46;;;;;;;0.00;0.00;;;11.10;99.90;;;;;;5102045;27;20559;-80
2022/06/21 00:10:16;;;;;;;0.00;0.00;;;11.10;99.90;;;;;;5118984;27;20054;-81
2022/06/21 00:12:42;;;;;;;0.00;0.00;;;11.10;99.90;;;;;;5101803;27;20482;-80
2022/06/21 00:15:09;;;;;;;0.00;0.00;;;11.10;99.90;;;;;;5118465;27;20513;-80
2022/06/21 00:17:35;;;;;;;0.00;0.00;;;11.00;99.90;;;;;;5101101;27;20046;-81
2022/06/21 00:20:01;;;;;;;0.10;0.03;;;11.00;99.90;;;;;;5101388;27;20364;-80
2022/06/21 00:22:26;;;;;;;0.00;0.00;;;11.10;99.90;;;;;;5117811;27;20059;-81
2022/06/21 00:24:52;;;;;;;0.00;0.00;;;11.00;99.90;;;;;;5101466;27;20047;-80
2022/06/21 00:27:21;;;;;;;0.00;0.00;;;11.00;99.90;;;;;;5118419;27;20085;-81
2022/06/21 00:29:46;;;;;;;0.00;0.00;;;11.00;99.90;;;;;;5101569;27;20505;-81
2022/06/21 00:32:17;;;;;;;0.00;0.00;;;11.00;99.90;;;;;;5118774;27;20043;-81
2022/06/21 00:34:45;;;;;;;0.00;0.00;;;11.00;99.90;;;;;;5118553;27;20066;-81
2022/06/21 00:37:23;;;;;;;0.45;0.22;;;10.90;99.90;;;;;;5101447;27;20043;-81
2022/06/21 00:39:51;;;;;;;0.00;0.00;;;10.90;99.90;;;;;;5118376;27;20147;-81
2022/06/21 00:42:28;;;;;;;0.00;0.00;;;10.90;99.90;;;;;;5101276;27;20050;-81
2022/06/21 00:45:05;;;;;;;0.00;0.00;;;10.90;99.90;;;;;;5117661;27;20149;-80
2022/06/21 00:47:42;;;;;;;0.00;0.00;;;10.90;99.90;;;;;;5101345;27;20047;-81
2022/06/21 00:50:19;;;;;;;0.00;0.00;;;10.80;99.90;;;;;;5101789;27;20057;-81
2022/06/21 00:52:52;;;;;;;0.00;0.00;;;10.80;99.90;;;;;;5118056;27;20073;-81
2022/06/21 00:55:30;;;;;;;0.00;0.00;;;10.80;99.90;;;;;;5118022;27;20482;-80
2022/06/21 00:57:56;;;;;;;0.00;0.00;;;10.80;99.90;;;;;;5101015;27;20051;-80
2022/06/21 01:00:52;;;;;;;0.00;0.00;;;10.70;99.90;;;;;;5101004;27;20039;-80
2022/06/21 01:03:26;;;;;;;0.00;0.00;;;10.60;99.90;;;;;;5117834;27;20043;-81
2022/06/21 01:05:54;;;;;;;0.13;0.13;;;10.60;99.90;;;;;;5117736;27;20089;-81
2022/06/21 01:08:24;;;;;;;0.10;0.10;;;10.40;99.90;;;;;;5100504;27;20035;-81
2022/06/21 01:10:58;;;;;;;0.00;0.00;;;10.50;99.90;;;;;;5101555;27;20134;-81
2022/06/21 01:13:29;;;;;;;0.00;0.00;;;10.50;99.90;;;;;;5117977;27;20036;-81
2022/06/21 01:15:59;;;;;;;0.00;0.00;;;10.50;99.90;;;;;;5100356;27;20130;-81
2022/06/21 01:18:26;;;;;;;0.00;0.00;;;10.40;99.90;;;;;;5099473;27;20062;-81
2022/06/21 01:20:55;;;;;;;0.00;0.00;;;10.30;99.90;;;;;;5100579;27;20107;-80
2022/06/21 01:23:29;;;;;;;0.00;0.00;;;10.30;99.90;;;;;;5117139;27;20085;-81
2022/06/21 01:26:27;;;;;;;0.00;0.00;;;10.30;99.90;;;;;;5117631;27;20130;-80
2022/06/21 01:28:53;;;;;;;0.00;0.00;;;10.30;99.90;;;;;;5100514;27;20059;-81
2022/06/21 01:31:20;;;;;;;0.00;0.00;;;10.30;99.90;;;;;;5099937;27;20084;-81
2022/06/21 01:33:46;;;;;;;0.00;0.00;;;10.20;99.90;;;;;;5100012;27;20059;-81
2022/06/21 01:36:17;;;;;;;0.00;0.00;;;10.20;99.90;;;;;;5099570;27;20057;-80
2022/06/21 01:39:05;;;;;;;0.00;0.00;;;10.20;99.90;;;;;;5100117;27;20089;-80
2022/06/21 01:41:43;;;;;;;0.08;0.08;;;10.20;99.90;;;;;;5099995;27;20043;-80
2022/06/21 01:44:16;;;;;;;0.00;0.00;;;10.10;99.90;;;;;;5100631;27;20047;-81
2022/06/21 01:46:42;;;;;;;0.00;0.00;;;10.20;99.90;;;;;;5116776;27;20133;-80
2022/06/21 01:49:12;;;;;;;0.00;0.00;;;10.20;99.90;;;;;;5117364;27;20043;-80
2022/06/21 01:51:47;;;;;;;0.00;0.00;;;10.20;99.90;;;;;;5117194;27;20032;-80
2022/06/21 01:54:17;;;;;;;0.00;0.00;;;10.30;99.90;;;;;;5116691;27;20052;-80
2022/06/21 01:56:45;;;;;;;0.00;0.00;;;10.30;99.90;;;;;;5100053;27;20055;-80
2022/06/21 01:59:22;;;;;;;0.00;0.00;;;10.20;99.90;;;;;;5116030;27;20047;-80
2022/06/21 02:02:12;;;;;;;0.00;0.00;;;10.20;99.90;;;;;;5116838;27;20047;-80
2022/06/21 02:04:54;;;;;;;0.00;0.00;;;10.10;99.90;;;;;;5099844;27;20486;-80
2022/06/21 02:07:26;;;;;;;0.00;0.00;;;10.10;99.90;;;;;;5100086;27;20050;-81
2022/06/21 02:10:11;;;;;;;0.00;0.00;;;10.00;99.90;;;;;;5100020;27;20090;-80
2022/06/21 02:12:41;;;;;;;0.60;0.22;;;10.10;99.90;;;;;;5099936;27;20046;-80
2022/06/21 02:15:18;;;;;;;0.00;0.00;;;10.10;99.90;;;;;;5098877;27;20060;-81
2022/06/21 02:17:45;;;;;;;0.00;0.00;;;10.00;99.90;;;;;;5117437;28;20463;-81
2022/06/21 02:20:29;;;;;;;0.00;0.00;;;9.90;99.90;;;;;;5099772;28;20046;-80
2022/06/21 02:22:54;;;;;;;0.00;0.00;;;10.00;99.90;;;;;;5100072;28;20066;-80
2022/06/21 02:25:23;;;;;;;0.00;0.00;;;10.00;99.90;;;;;;5116460;28;20039;-80
2022/06/21 02:27:52;;;;;;;0.00;0.00;;;10.00;99.90;;;;;;5116569;28;20513;-81
2022/06/21 02:30:22;;;;;;;0.00;0.00;;;10.10;99.90;;;;;;5116865;28;20043;-81
2022/06/21 02:32:50;;;;;;;0.00;0.00;;;10.00;99.90;;;;;;5116601;28;20047;-81
2022/06/21 02:35:27;;;;;;;0.00;0.00;;;9.90;99.90;;;;;;5099526;28;20121;-80
2022/06/21 02:37:58;;;;;;;0.28;0.00;;;10.00;99.90;;;;;;5116671;28;20434;-80
2022/06/21 02:40:28;;;;;;;0.00;0.00;;;9.90;99.90;;;;;;5099796;28;20391;-80
2022/06/21 02:43:01;;;;;;;0.00;0.00;;;9.80;99.90;;;;;;5103948;27;20055;-80
2022/06/21 02:45:57;;;;;;;0.00;0.00;;;9.80;99.90;;;;;;5102860;27;20051;-81
2022/06/21 02:48:38;;;;;;;0.00;0.00;;;9.80;99.90;;;;;;5061989;28;20067;-80
2022/06/21 02:51:10;;;;;;;0.00;0.00;;;9.80;99.90;;;;;;5062269;28;20048;-80
2022/06/21 02:53:48;;;;;;;0.00;0.00;;;9.70;99.90;;;;;;5078572;28;20052;-80
2022/06/21 02:56:29;;;;;;;0.00;0.00;;;9.70;99.90;;;;;;5061786;28;20040;-80
2022/06/21 02:58:59;;;;;;;0.00;0.00;;;9.70;99.90;;;;;;5078771;28;20128;-81
2022/06/21 03:01:33;;;;;;;0.00;0.00;;;9.70;99.90;;;;;;5061733;28;20612;-81
2022/06/21 03:03:59;;;;;;;0.00;0.00;;;9.70;99.90;;;;;;5061531;28;20425;-80
2022/06/21 03:06:28;;;;;;;0.00;0.00;;;9.70;99.90;;;;;;5078288;28;20488;-80
2022/06/21 03:09:02;;;;;;;0.00;0.00;;;9.70;99.90;;;;;;5061740;28;20120;-80
2022/06/21 03:11:34;;;;;;;0.00;0.00;;;9.60;99.90;;;;;;5062038;28;20052;-81
2022/06/21 03:14:05;;;;;;;0.00;0.00;;;9.60;99.90;;;;;;5062420;28;20091;-80
2022/06/21 03:16:32;;;;;;;0.00;0.00;;;9.60;99.90;;;;;;5077866;28;20044;-80
2022/06/21 03:19:03;;;;;;;0.00;0.00;;;9.60;99.90;;;;;;5078277;28;20525;-80
2022/06/21 03:21:35;;;;;;;0.10;0.00;;;9.60;99.90;;;;;;5078268;28;20248;-80
2022/06/21 03:24:10;;;;;;;0.00;0.00;;;9.60;99.90;;;;;;5062314;27;20052;-80
2022/06/21 03:26:39;;;;;;;0.08;0.08;;;9.70;99.90;;;;;;5120463;27;20073;-80
2022/06/21 03:29:08;;;;;;;0.00;0.00;;;9.70;99.90;;;;;;5102957;27;20129;-80
2022/06/21 03:31:38;;;;;;;0.00;0.00;;;9.70;99.90;;;;;;5119692;27;20054;-81
2022/06/21 03:34:09;;;;;;;0.00;0.00;;;9.60;99.90;;;;;;5102864;27;20108;-80
2022/06/21 03:36:36;;;;;;;0.00;0.00;;;9.60;99.90;;;;;;5119147;27;20095;-80
2022/06/21 03:39:03;;;;;;;0.00;0.00;;;9.70;99.90;;;;;;5120132;27;20054;-80
2022/06/21 03:41:45;;;;;;;0.00;0.00;;;9.50;99.90;;;;;;5119689;27;20482;-80
2022/06/21 03:44:21;;;;;;;1.55;0.65;;;9.60;99.90;;;;;;5102592;27;20047;-80
2022/06/21 03:47:10;;;;;;;0.00;0.00;;;10.00;99.90;;;;;;5120011;27;20043;-80
2022/06/21 03:50:00;;;;;;;0.00;0.00;;;9.70;99.90;;;;;;5102578;27;20095;-80
2022/06/21 03:52:48;;;;;;;0.00;0.00;;;9.70;99.90;;;;;;5102033;27;20051;-81
2022/06/21 03:55:51;;;;;;;0.00;0.00;;;9.70;99.90;;;;;;5102604;27;20047;-80
2022/06/21 03:58:41;;;;;;;0.00;0.00;;;9.70;99.90;;;;;;5119539;27;20039;-80
2022/06/21 04:01:10;;;;;;;0.00;0.00;;;9.80;99.90;;;;;;5119336;27;20039;-80
2022/06/21 04:03:52;;;;;;;0.00;0.00;;;9.80;99.90;;;;;;5101738;27;20043;-80
2022/06/21 04:06:27;;;;;;;0.00;0.00;;;9.80;99.90;;;;;;5119053;27;20420;-80
2022/06/21 04:09:03;;;;;;;0.00;0.00;;;9.90;99.90;;;;;;5101521;27;20055;-80
2022/06/21 04:11:35;;;;;;;0.00;0.00;;;10.00;99.90;;;;;;5119086;27;20079;-81
2022/06/21 04:14:39;;;;;;;0.00;0.00;;;9.80;99.90;;;;;;5119115;27;20088;-80
2022/06/21 04:17:17;;;;;;;0.00;0.00;;;9.80;99.90;;;;;;5101845;27;20155;-80
2022/06/21 04:19:54;;;;;;;0.00;0.00;;;9.90;99.90;;;;;;5119420;27;20374;-80
2022/06/21 04:22:29;;;;;;;;;;;10.10;99.90;;;;;;5102654;27;20054;-80
2022/06/21 04:25:19;;;;;;;0.00;0.00;;;9.80;99.90;;;;;;5101805;27;19919;-80
2022/06/21 04:27:58;;;;;;;0.22;0.00;;;10.60;99.90;;;;;;5101729;27;20058;-80
2022/06/21 04:30:34;;;;;;;0.00;0.00;;;10.00;99.90;;;;;;5118421;27;20077;-80
2022/06/21 04:33:18;;;;;;;0.00;0.00;;;10.10;99.90;;;;;;5102247;27;20073;-80
2022/06/21 04:35:53;;;;;;;0.00;0.00;;;10.20;99.90;;;;;;5101166;27;20084;-80
2022/06/21 04:38:34;;;;;;;0.00;0.00;;;10.30;99.90;;;;;;5118633;27;20043;-80
2022/06/21 04:41:07;;;;;;;0.00;0.00;;;10.60;99.90;;;;;;5118747;27;20402;-80
2022/06/21 04:43:58;;;;;;;0.00;0.00;;;10.50;99.90;;;;;;5118706;27;20043;-80
2022/06/21 04:46:32;;;;;;;0.00;0.00;;;10.50;99.90;;;;;;5118381;27;20505;-80
2022/06/21 04:49:18;;;;;;;0.00;0.00;;;10.60;99.90;;;;;;5101086;27;20482;-80
2022/06/21 04:52:08;;;;;;;0.00;0.00;;;11.00;99.90;;;;;;5101242;27;20297;-80
2022/06/21 04:54:37;;;;;;;0.00;0.00;;;10.80;99.90;;;;;;5100891;27;20057;-80
2022/06/21 04:57:14;;;;;;;0.00;0.00;;;10.90;99.90;;;;;;5117962;27;20398;-80
2022/06/21 04:59:51;;;;;;;0.00;0.00;;;11.00;99.90;;;;;;5101155;27;20047;-80
2022/06/21 05:02:24;;;;;;;0.43;0.22;;;11.10;99.90;;;;;;5118190;27;20043;-79
2022/06/21 05:05:02;;;;;;;0.00;0.00;;;11.20;99.90;;;;;;5117869;27;20418;-80
2022/06/21 05:07:32;;;;;;;0.00;0.00;;;11.30;99.90;;;;;;5117922;27;20368;-80
2022/06/21 05:09:58;;;;;;;0.00;0.00;;;11.40;99.90;;;;;;5117502;27;20054;-80
2022/06/21 05:12:28;;;;;;;1.45;0.10;;;11.40;99.90;;;;;;5100627;27;20581;-80
2022/06/21 05:15:05;;;;;;;0.00;0.00;;;11.40;99.90;;;;;;5101075;27;20594;-81
2022/06/21 05:17:33;;;;;;;0.00;0.00;;;11.50;99.90;;;;;;5117862;27;20568;-80
2022/06/21 05:20:04;;;;;;;0.00;0.00;;;11.50;99.90;;;;;;5117454;27;20564;-80
2022/06/21 05:22:42;;;;;;;0.00;0.00;;;11.60;99.90;;;;;;5100760;27;20047;-80
2022/06/21 05:25:35;;;;;;;0.00;0.00;;;11.70;99.90;;;;;;5100623;27;20483;-80
2022/06/21 05:28:39;;;;;;;0.00;0.00;;;11.70;99.90;;;;;;5117586;27;20042;-80
2022/06/21 05:31:25;;;;;;;0.00;0.00;;;11.80;99.90;;;;;;5075759;28;20052;-80
2022/06/21 05:33:56;;;;;;;0.00;0.00;;;11.80;99.90;;;;;;5059411;28;20062;-80
2022/06/21 05:36:28;;;;;;;0.00;0.00;;;11.90;99.90;;;;;;5075311;28;20573;-80
2022/06/21 05:39:08;;;;;;;0.00;0.00;;;11.90;99.90;;;;;;5058917;28;20055;-80
2022/06/21 05:41:45;;;;;;;0.00;0.00;;;12.00;99.90;;;;;;5059089;28;20063;-80
2022/06/21 05:44:52;;;;;;;0.00;0.00;;;12.10;99.90;;;;;;5075914;28;20042;-80
2022/06/21 05:47:41;;;;;;;0.00;0.00;;;12.20;99.90;;;;;;5018846;28;20127;-80
2022/06/21 05:50:12;;;;;;;0.00;0.00;;;12.30;99.90;;;;;;5035604;28;20045;-80
2022/06/21 05:52:45;;;;;;;0.10;0.10;;;12.60;99.90;;;;;;5018661;28;20068;-80
2022/06/21 05:55:34;;;;;;;0.00;0.00;;;12.40;99.90;;;;;;5018777;28;20084;-80
2022/06/21 05:58:27;;;;;;;0.00;0.00;;;12.50;99.90;;;;;;5018930;28;20049;-80
2022/06/21 06:01:15;;;;;;;0.00;0.00;;;12.60;99.90;;;;;;5035296;28;20148;-80
2022/06/21 06:03:47;;;;;;;0.00;0.00;;;12.70;99.90;;;;;;5018957;28;20143;-81
2022/06/21 06:06:16;;;;;;;0.00;0.00;;;12.80;99.90;;;;;;5025755;28;20142;-81
2022/06/21 06:08:48;;;;;;;0.00;0.00;;;12.80;99.90;;;;;;5054922;28;20044;-80
2022/06/21 06:11:20;;;;;;;0.00;0.00;;;13.00;99.90;;;;;;5038568;28;20056;-80
2022/06/21 06:13:48;;;;;;;0.40;0.15;;;13.20;99.90;;;;;;5072138;28;20064;-80
2022/06/21 06:16:35;;;;;;;0.00;0.00;;;13.10;99.90;;;;;;5037423;28;20132;-80
2022/06/21 06:19:06;;;;;;;0.00;0.00;;;13.50;99.90;;;;;;5094874;27;20054;-80
2022/06/21 06:21:44;;;;;;;0.00;0.00;;;13.70;99.90;;;;;;5117098;28;20035;-80
2022/06/21 06:24:19;;;;;;;0.00;0.00;;;13.80;99.90;;;;;;5099286;28;20402;-80
2022/06/21 06:26:48;;;;;;;0.00;0.00;;;13.90;99.90;;;;;;5099882;28;20051;-80
2022/06/21 06:29:34;;;;;;;1.20;0.32;;;14.00;99.90;;;;;;5116608;28;20058;-80
2022/06/21 06:32:15;;;;;;;0.00;0.00;;;14.00;99.90;;;;;;5117337;28;20058;-80
2022/06/21 06:34:49;;;;;;;0.00;0.00;;;14.00;99.90;;;;;;5116209;28;20513;-80
2022/06/21 06:37:38;;;;;;;0.00;0.00;;;14.00;99.90;;;;;;5116861;28;20134;-80
2022/06/21 06:40:18;;;;;;;0.00;0.00;;;14.00;99.90;;;;;;5100429;28;20391;-79
2022/06/21 06:42:46;;;;;;;0.00;0.00;;;14.10;99.90;;;;;;5099594;28;20068;-80
2022/06/21 06:45:23;;;;;;;0.05;0.05;;;14.10;99.90;;;;;;5116442;28;20126;-80
2022/06/21 06:47:56;;;;;;;0.00;0.00;;;14.10;99.90;;;;;;5116494;28;20096;-80
2022/06/21 06:50:29;;;;;;;0.00;0.00;;;14.20;99.90;;;;;;5099551;28;20043;-80
2022/06/21 06:53:01;;;;;;;0.00;0.00;;;14.20;99.90;;;;;;5116912;28;20070;-80
2022/06/21 06:55:42;;;;;;;0.00;0.00;;;14.30;99.90;;;;;;5099694;28;20444;-80
2022/06/21 06:58:42;;;;;;;0.00;0.00;;;14.30;99.90;;;;;;5116626;28;20106;-80
2022/06/21 07:01:15;;;;;;;0.20;0.17;;;14.40;99.90;;;;;;5116383;28;20076;-80
2022/06/21 07:03:56;;;;;;;0.00;0.00;;;14.50;99.90;;;;;;5116458;28;20142;-80
2022/06/21 07:06:31;;;;;;;0.00;0.00;;;14.70;99.90;;;;;;5116489;28;20088;-81
2022/06/21 07:09:17;;;;;;;;;;;14.80;99.90;;;;;;5116502;28;20134;-81
2022/06/21 07:11:42;;;;;;;0.00;0.00;;;15.00;99.90;;;;;;5115370;28;20398;-80
2022/06/21 07:14:12;;;;;;;0.15;0.15;;;15.10;99.90;;;;;;5115923;28;20078;-80
2022/06/21 07:16:40;;;;;;;0.00;0.00;;;15.30;99.90;;;;;;5115842;28;20050;-81
2022/06/21 07:19:08;;;;;;;0.20;0.00;;;15.40;99.90;;;;;;5099138;28;20043;-80
2022/06/21 07:21:35;;;;;;;0.00;0.00;;;15.50;99.90;;;;;;5116061;28;20047;-81
2022/06/21 07:24:01;;;;;;;0.00;0.00;;;15.50;99.90;;;;;;5099266;28;20039;-80
2022/06/21 07:26:34;;;;;;;0.00;0.00;;;15.70;99.90;;;;;;5099275;27;20453;-81
2022/06/21 07:29:16;;;;;;;0.15;0.00;;;15.80;99.90;;;;;;5103067;27;20498;-81
2022/06/21 07:31:59;;;;;;;3.92;0.45;;;15.90;99.90;;;;;;5119834;27;20441;-80
2022/06/21 07:34:47;;;;;;;0.00;0.00;;;16.10;99.90;;;;;;5102625;27;20039;-81
2022/06/21 07:37:29;;;;;;;0.00;0.00;;;16.20;99.90;;;;;;5119765;27;20403;-81
2022/06/21 07:40:04;;;;;;;0.00;0.00;;;16.20;99.90;;;;;;5119715;27;20403;-81
2022/06/21 07:42:37;;;;;;;0.00;0.00;;;16.30;99.90;;;;;;5120123;27;20054;-81
2022/06/21 07:45:20;;;;;;;0.00;0.00;;;16.40;99.90;;;;;;5102514;27;20043;-81
2022/06/21 07:47:56;;;;;;;0.00;0.00;;;16.50;99.90;;;;;;5137657;27;20082;-81
2022/06/21 07:50:31;;;;;;;0.00;0.00;;;16.30;99.90;;;;;;5102189;27;20475;-80
2022/06/21 07:53:08;;;;;;;0.00;0.00;;;16.20;99.90;;;;;;5102416;27;20094;-80
2022/06/21 07:55:42;;;;;;;0.00;0.00;;;16.10;99.90;;;;;;5119004;27;20120;-81
2022/06/21 07:58:24;;;;;;;0.05;0.05;;;15.90;99.90;;;;;;5102388;27;20054;-81
2022/06/21 08:06:46;;;;;;;0.00;0.00;;;15.70;99.90;;;;;;5096679;28;20112;-81
2022/06/21 08:09:50;;;;;;;0.00;0.00;;;15.90;99.90;;;;;;5096625;28;20630;-81
2022/06/21 08:12:16;;;;;;;0.00;0.00;;;16.10;99.90;;;;;;5017937;28;20465;-81
2022/06/21 08:14:42;;;;;;;0.00;0.00;;;16.40;99.90;;;;;;5051438;28;20136;-81
2022/06/21 08:17:18;;;;;;;0.00;0.00;;;16.60;99.90;;;;;;5018458;28;20156;-81
2022/06/21 08:20:16;;;;;;;0.00;0.00;;;16.70;99.90;;;;;;5035219;28;20114;-81
2022/06/21 08:23:01;;;;;;;0.03;0.00;;;16.80;99.90;;;;;;5034945;28;20085;-80
2022/06/21 08:25:42;;;;;;;0.10;0.10;;;16.80;99.90;;;;;;5035478;28;20055;-80
2022/06/21 08:28:25;;;;;;;0.00;0.00;;;16.90;99.90;;;;;;5034741;28;20495;-81
2022/06/21 08:30:55;;;;;;;0.00;0.00;;;17.10;99.90;;;;;;5017851;28;20419;-80
2022/06/21 08:33:47;;;;;;;0.00;0.00;;;17.20;99.90;;;;;;5018449;28;20612;-80
2022/06/21 08:36:41;;;;;;;0.00;0.00;;;17.30;99.90;;;;;;5034711;28;20064;-80
2022/06/21 08:39:25;;;;;;;0.00;0.00;;;17.40;99.90;;;;;;5016807;28;20057;-80
2022/06/21 08:42:29;;;;;;;0.00;0.00;;;17.60;99.90;;;;;;5017549;28;20061;-80
2022/06/21 08:45:40;;;;;;;0.00;0.00;;;17.70;99.90;;;;;;5034804;28;20135;-80
2022/06/21 08:48:12;;;;;;;0.00;0.00;;;17.90;99.90;;;;;;5054570;28;20445;-79
2022/06/21 08:51:33;;;;;;;0.10;0.10;;;18.10;99.90;;;;;;5079399;28;20753;-79
2022/06/21 08:54:08;;;;;;;0.00;0.00;;;18.30;99.90;;;;;;5095412;28;20086;-79
2022/06/21 08:56:46;;;;;;;0.00;0.00;;;18.40;99.60;;;;;;5078638;28;20148;-79
2022/06/21 08:59:47;;;;;;;0.00;0.00;;;18.60;98.60;;;;;;5078668;28;20047;-79
2022/06/21 09:02:34;;;;;;;0.00;0.00;;;18.60;99.40;;;;;;5111033;27;20058;-80
2022/06/21 09:05:35;;;;;;;0.93;0.28;;;18.80;99.40;;;;;;5098609;27;20055;-80
2022/06/21 09:08:25;;;;;;;0.00;0.00;;;18.90;98.30;;;;;;5099912;27;20055;-80
2022/06/21 09:11:25;;;;;;;0.00;0.00;;;18.90;98.80;;;;;;5115530;27;20146;-80
2022/06/21 09:13:53;;;;;;;0.00;0.00;;;19.00;97.30;;;;;;5115452;27;20557;-79
2022/06/21 09:16:32;;;;;;;0.00;0.00;;;19.10;98.70;;;;;;5115320;27;20047;-79
2022/06/21 09:19:10;;;;;;;0.00;0.00;;;19.20;98.30;;;;;;5115658;27;20134;-79
2022/06/21 09:21:45;;;;;;;0.00;0.00;;;19.30;97.70;;;;;;5094067;28;20384;-79
2022/06/21 09:24:21;;;;;;;0.00;0.00;;;19.40;97.30;;;;;;5078321;28;20495;-79
2022/06/21 09:27:05;;;;;;;0.00;0.00;;;19.50;96.20;;;;;;5078458;28;20087;-80
2022/06/21 09:29:39;;;;;;;0.00;0.00;;;19.60;97.00;;;;;;5095606;28;20522;-80
2022/06/21 09:32:30;;;;;;;0.00;0.00;;;19.60;97.40;;;;;;5094685;28;20063;-79
2022/06/21 09:35:21;;;;;;;0.00;0.00;;;19.80;97.10;;;;;;5095176;28;20506;-80
2022/06/21 09:38:15;;;;;;;0.00;0.00;;;19.90;95.70;;;;;;5114881;27;20063;-80
2022/06/21 09:41:12;;;;;;;0.00;0.00;;;19.90;96.40;;;;;;5115793;27;20096;-80
2022/06/21 09:44:08;;;;;;;0.38;0.20;;;19.90;96.50;;;;;;5093523;28;20047;-80
2022/06/21 09:46:33;;;;;;;0.00;0.00;;;20.10;97.20;;;;;;5114258;27;20051;-81
2022/06/21 09:49:29;;;;;;;0.00;0.00;;;20.10;97.10;;;;;;5114942;27;20054;-80
2022/06/21 09:52:30;;;;;;;0.22;0.22;;;20.40;96.80;;;;;;5016217;28;20052;-80
2022/06/21 09:55:26;;;;;;;0.00;0.00;;;20.50;96.30;;;;;;5017230;28;20516;-80
2022/06/21 09:58:09;;;;;;;1.75;0.40;;;20.70;96.70;;;;;;5018224;28;20157;-80
2022/06/21 10:00:50;;;;;;;0.00;0.00;;;20.70;95.30;;;;;;5018552;28;20057;-80
2022/06/21 10:03:47;;;;;;;0.00;0.00;;;20.80;95.00;;;;;;5018510;28;20049;-80
2022/06/21 10:06:48;;;;;;;0.00;0.00;;;20.90;94.80;;;;;;5036052;28;20045;-80
2022/06/21 10:09:28;;;;;;;0.00;0.00;;;21.00;95.60;;;;;;4995560;28;20100;-80
2022/06/21 10:12:06;;;;;;;0.00;0.00;;;21.20;95.40;;;;;;4995726;28;20061;-80
2022/06/21 10:14:56;;;;;;;0.00;0.00;;;21.40;95.30;;;;;;4979661;28;20050;-80
2022/06/21 10:18:15;;;;;;;0.00;0.00;;;21.30;92.30;;;;;;4979664;28;20053;-80
2022/06/21 10:21:06;;;;;;;0.00;0.00;;;21.30;94.10;;;;;;4956800;28;20101;-80
2022/06/21 10:23:40;;;;;;;0.00;0.00;;;21.40;93.10;;;;;;4940533;28;20066;-80
2022/06/21 10:26:27;;;;;;;0.00;0.00;;;21.40;93.20;;;;;;4956903;28;20143;-80
2022/06/21 10:29:30;;;;;;;0.00;0.00;;;21.60;93.60;;;;;;4970316;28;21038;-80
2022/06/21 10:32:23;;;;;;;0.00;0.00;;;21.50;92.90;;;;;;4998634;28;20150;-80
2022/06/21 10:35:21;;;;;;;0.00;0.00;;;21.80;93.80;;;;;;5031652;28;20045;-80
2022/06/21 10:37:46;;;;;;;0.00;0.00;;;21.70;91.90;;;;;;4998712;28;20057;-80
2022/06/21 10:40:48;;;;;;;0.00;0.00;;;21.50;91.20;;;;;;4998776;28;20049;-80
2022/06/21 10:43:22;;;;;;;0.00;0.00;;;21.50;92.10;;;;;;4985395;28;20096;-80
2022/06/21 10:45:53;;;;;;;0.00;0.00;;;21.30;90.50;;;;;;4995518;28;20097;-79
2022/06/21 10:48:56;;;;;;;0.00;0.00;;;21.20;90.50;;;;;;4995714;28;20112;-80
2022/06/21 10:51:58;;;;;;;0.00;0.00;;;21.50;91.80;;;;;;5020919;28;20063;-80
2022/06/21 10:54:52;;;;;;;0.00;0.00;;;21.60;92.10;;;;;;5054233;28;20496;-80
2022/06/21 10:57:45;;;;;;;0.00;0.00;;;21.80;90.00;;;;;;5055039;28;20052;-80
2022/06/21 11:04:12;;;;;;;0.00;0.00;;;21.80;90.50;;;;;;5018115;28;20049;-81
2022/06/21 11:07:06;;;;;;;0.00;0.00;;;21.90;91.20;;;;;;5018014;28;20073;-80
2022/06/21 11:10:00;;;;;;;0.52;0.20;;;22.20;91.30;;;;;;4993084;28;20053;-80
2022/06/21 11:13:05;;;;;;;0.00;0.00;;;22.20;89.50;;;;;;5018723;28;20064;-80
2022/06/21 11:15:39;;;;;;;0.08;0.05;;;22.30;89.50;;;;;;5018645;28;20042;-80
2022/06/21 11:18:26;;;;;;;0.00;0.00;;;22.50;83.80;;;;;;5027728;28;20078;-80
2022/06/21 11:21:26;;;;;;;0.00;0.00;;;22.70;86.40;;;;;;5041749;28;20061;-80
2022/06/21 11:24:13;;;;;;;0.00;0.00;;;23.00;86.50;;;;;;5058605;28;20055;-80
2022/06/21 11:26:49;;;;;;;0.00;0.00;;;23.20;84.10;;;;;;5058480;28;20439;-80
2022/06/21 11:29:36;;;;;;;0.00;0.00;;;23.30;84.70;;;;;;5041711;28;20040;-80
2022/06/21 11:32:10;;;;;;;0.00;0.00;;;23.50;82.50;;;;;;5058747;28;20044;-80
2022/06/21 11:34:44;;;;;;;;;;;23.70;83.80;;;;;;5058894;28;20048;-80
2022/06/21 11:37:25;;;;;;;0.00;0.00;;;24.00;81.70;;;;;;5041149;28;19920;-80
2022/06/21 11:40:05;;;;;;;0.00;0.00;;;23.90;78.10;;;;;;5098724;27;20055;-80
2022/06/21 11:42:33;;;;;;;0.17;0.17;;;24.00;83.20;;;;;;5102815;27;20133;-81
2022/06/21 11:45:22;;;;;;;0.00;0.00;;;24.10;77.90;;;;;;5102563;27;20054;-80
2022/06/21 11:48:21;;;;;;;0.00;0.00;;;24.20;81.20;;;;;;5102659;27;20047;-80
2022/06/21 11:50:49;;;;;;;0.00;0.00;;;24.40;80.40;;;;;;5120157;27;20043;-80
2022/06/21 11:53:41;;;;;;;0.00;0.00;;;24.50;79.60;;;;;;5119245;27;20051;-79
2022/06/21 11:56:09;;;;;;;0.00;0.00;;;24.40;81.00;;;;;;5102533;27;20046;-79
2022/06/21 11:59:00;;;;;;;0.00;0.00;;;24.20;78.20;;;;;;5119734;27;20047;-79
2022/06/21 12:01:30;;;;;;;0.05;0.05;;;24.10;78.10;;;;;;5101616;27;20051;-79
2022/06/21 12:04:17;;;;;;;0.05;0.00;;;24.10;77.30;;;;;;5119384;27;20055;-79
2022/06/21 12:07:14;;;;;;;0.00;0.00;;;23.90;78.70;;;;;;5102251;27;20066;-79
2022/06/21 12:09:55;;;;;;;0.00;0.00;;;23.70;78.80;;;;;;5102230;27;20054;-79
2022/06/21 12:12:36;;;;;;;0.00;0.00;;;23.40;78.90;;;;;;5119566;27;20387;-79
2022/06/21 12:15:34;;;;;;;0.00;0.00;;;23.20;77.60;;;;;;5100669;27;20039;-79
2022/06/21 12:18:05;;;;;;;0.00;0.00;;;23.00;78.20;;;;;;5020720;28;20053;-79
2022/06/21 12:20:34;;;;;;;0.00;0.00;;;22.80;78.40;;;;;;5018844;28;20087;-79
2022/06/21 12:23:18;;;;;;;0.00;0.00;;;22.70;77.40;;;;;;5037417;28;20095;-79
2022/06/21 12:25:45;;;;;;;0.00;0.00;;;22.60;78.10;;;;;;5037391;28;20420;-79
2022/06/21 12:28:24;;;;;;;0.00;0.00;;;22.60;77.10;;;;;;5020700;28;20068;-79
2022/06/21 12:30:51;;;;;;;0.00;0.00;;;22.50;77.00;;;;;;5037296;28;20083;-79
2022/06/21 12:33:20;;;;;;;0.00;0.00;;;22.40;77.20;;;;;;5020726;28;20535;-79
2022/06/21 12:36:20;;;;;;;0.00;0.00;;;22.50;76.00;;;;;;5036843;28;20144;-79
2022/06/21 12:38:59;;;;;;;0.65;0.32;;;22.70;79.30;;;;;;5020631;28;20171;-79
2022/06/21 12:41:43;;;;;;;0.00;0.00;;;22.80;73.60;;;;;;5019959;28;20057;-79
2022/06/21 12:44:18;;;;;;;0.00;0.00;;;23.20;76.50;;;;;;5020487;28;20513;-79
2022/06/21 12:46:58;;;;;;;0.00;0.00;;;23.30;70.90;;;;;;5020127;28;20140;-79
2022/06/21 12:50:08;;;;;;;0.00;0.00;;;23.40;73.70;;;;;;5036767;28;20531;-79
2022/06/21 12:52:33;;;;;;;0.00;0.00;;;23.50;73.20;;;;;;5036892;28;20060;-79
2022/06/21 12:54:59;;;;;;;0.00;0.00;;;23.70;73.70;;;;;;5081059;27;20055;-79
2022/06/21 12:57:48;;;;;;;0.00;0.00;;;23.80;70.50;;;;;;5101873;27;20091;-79
2022/06/21 13:00:24;;;;;;;0.00;0.00;;;23.80;72.50;;;;;;5100741;27;20059;-79
2022/06/21 13:03:07;;;;;;;0.00;0.00;;;24.10;71.40;;;;;;5100248;27;20508;-79
2022/06/21 13:05:59;;;;;;;0.00;0.00;;;24.00;67.70;;;;;;5101252;27;20037;-79
2022/06/21 13:08:43;;;;;;;0.00;0.00;;;23.80;70.10;;;;;;5118033;27;20125;-79
2022/06/21 13:11:46;;;;;;;0.00;0.00;;;23.80;68.20;;;;;;5117942;27;20043;-79
2022/06/21 13:14:17;;;;;;;0.00;0.00;;;23.80;72.90;;;;;;5100886;27;20047;-79
2022/06/21 13:16:49;;;;;;;0.00;0.00;;;23.70;71.50;;;;;;5117499;27;20547;-79
2022/06/21 13:19:30;;;;;;;0.00;0.00;;;23.70;71.80;;;;;;5117971;27;20047;-79
2022/06/21 13:21:55;;;;;;;0.00;0.00;;;23.50;70.80;;;;;;5117376;27;20096;-79
2022/06/21 13:24:39;;;;;;;0.00;0.00;;;23.40;72.60;;;;;;5117399;27;20043;-79
2022/06/21 13:27:27;;;;;;;0.00;0.00;;;23.40;70.90;;;;;;5117667;27;20538;-80
2022/06/21 13:30:01;;;;;;;0.00;0.00;;;23.50;72.90;;;;;;5117437;27;20078;-79
2022/06/21 13:32:32;;;;;;;0.00;0.00;;;23.60;70.80;;;;;;5101445;27;20043;-79
2022/06/21 13:35:22;;;;;;;0.00;0.00;;;23.60;70.10;;;;;;5118000;27;20043;-80
2022/06/21 13:38:14;;;;;;;0.00;0.00;;;23.60;69.50;;;;;;5099874;27;20417;-80
2022/06/21 13:40:48;;;;;;;0.00;0.00;;;23.80;74.00;;;;;;5036426;28;20100;-80
2022/06/21 13:43:36;;;;;;;1.08;0.15;;;24.00;70.10;;;;;;5019357;28;20060;-80
2022/06/21 13:46:10;;;;;;;0.10;0.10;;;24.20;69.40;;;;;;5035517;28;20191;-79
2022/06/21 13:48:48;;;;;;;0.00;0.00;;;24.30;64.50;;;;;;5035739;28;20404;-79
2022/06/21 13:51:13;;;;;;;0.00;0.00;;;24.50;66.70;;;;;;5036214;28;20069;-80
2022/06/21 13:54:21;;;;;;;0.00;0.00;;;24.70;66.50;;;;;;5019251;28;20091;-82
2022/06/21 13:56:59;;;;;;;0.00;0.00;;;24.90;69.70;;;;;;4980166;28;20053;-79
2022/06/21 13:59:41;;;;;;;0.00;0.00;;;25.20;67.80;;;;;;4980401;28;20141;-80